TAF

Letisková predpoveď TAF

Informácie o správe TAF

22.11.2017 - 05:00 UTC

TAF LZIB 220500Z 2206/2306 28007KT CAVOK
    PROB40 TEMPO 2210/2214 9999 SCT040
    BECMG 2210/2212 21005KT
    BECMG 2217/2219 VRB02KT 6000 SCT015
    BECMG 2222/2300 2000 BR BKN004
    TEMPO 2302/2306 07006KT 0300 FG OVC001=
TAF LZKZ 220500Z 2206/2306 VRB02KT 3000 BR SCT002 OVC004
    TEMPO 2206/2208 1300 BCFG OVC001
    BECMG 2210/2212 7000 SCT004 BKN015
    PROB40 TEMPO 2212/2215 02005KT 9999 BKN030
    BECMG 2218/2220 2000 BR BKN003
    TEMPO 2222/2306 0200 FG OVC001=
TAF LZTT 220500Z 2206/2306 VRB02KT 7000 SCT004 OVC008
    PROB40 TEMPO 2206/2208 3000 BR OVC005
    BECMG 2212/2214 27006KT 9999 FEW020 BKN040
    BECMG 2214/2216 SCT045
    BECMG 2218/2220 VRB02KT
    BECMG 2220/2222 1200 BCFG BKN003
    TEMPO 2222/2306 0400 FZFG OVC001=

22.11.2017 - 05:00 UTC

TAF LZSL 220500Z 2206/2215 VRB02KT 6000 OVC006
    TEMPO 2206/2208 1300 -DZ BCFG SCT002 OVC004
    BECMG 2209/2211 BKN010
    BECMG 2211/2213 28006KT 9999 SCT025 BKN080=
TAF LZPP 220500Z 2206/2215 VRB02KT 2000 BR OVC003
    TEMPO 2206/2207 0700 FG OVC001
    BECMG 2208/2210 22005KT 5000 BR SCT005 BKN020
    BECMG 2210/2212 9999 SCT035=
TAF LZZI 220500Z 2206/2215 VRB02KT 7000 SCT002 OVC005
    TEMPO 2206/2208 4000 -RA BR OVC003
    BECMG 2209/2211 23006KT BKN015=

22.11.2017 - 02:00 UTC

TAF LZSL 220200Z 2203/2212 VRB02KT 3000 -RA BR OVC005
    TEMPO 2203/2206 1200 BCFG SCT002 OVC004
    BECMG 2207/2209 6000 NSW FEW005 BKN012
    BECMG 2210/2212 9999 SCT035 BKN080=
TAF LZZI 220200Z 2203/2212 VRB02KT 4000 BR SCT002 OVC005
    TEMPO 2203/2207 2000 -RA BR OVC003
    BECMG 2209/2211 23006KT 7000 BKN020=

skok na menu ↑


skok na začiatok stránky ↑